createdAt,value
2017-06-23T00:02:23.743Z,22.60
2017-06-23T00:04:50.152Z,22.50
2017-06-23T00:07:16.684Z,22.50
2017-06-23T00:09:43.121Z,22.50
2017-06-23T00:12:11.286Z,22.40
2017-06-23T00:14:37.696Z,22.40
2017-06-23T00:17:04.160Z,22.30
2017-06-23T00:19:30.593Z,22.20
2017-06-23T00:21:57.028Z,22.20
2017-06-23T00:24:24.184Z,22.20
2017-06-23T00:26:51.416Z,22.20
2017-06-23T00:29:17.864Z,22.20
2017-06-23T00:31:45.045Z,22.20
2017-06-23T00:34:11.492Z,22.10
2017-06-23T00:36:37.961Z,22.10
2017-06-23T00:39:04.378Z,22.10
2017-06-23T00:41:30.805Z,22.10
2017-06-23T00:43:57.204Z,22.00
2017-06-23T00:46:23.664Z,22.00
2017-06-23T00:48:50.206Z,21.90
2017-06-23T00:51:16.608Z,21.90
2017-06-23T00:53:43.029Z,21.90
2017-06-23T00:56:10.255Z,21.80
2017-06-23T00:58:36.672Z,21.80
2017-06-23T01:01:03.126Z,21.80
2017-06-23T01:03:30.322Z,21.70
2017-06-23T01:05:56.748Z,21.70
2017-06-23T01:08:23.228Z,21.70
2017-06-23T01:10:49.710Z,21.70
2017-06-23T01:13:16.128Z,21.70
2017-06-23T01:15:43.280Z,21.70
2017-06-23T01:18:10.541Z,21.70
2017-06-23T01:20:36.960Z,21.70
2017-06-23T01:23:04.124Z,21.60
2017-06-23T01:25:30.652Z,21.60
2017-06-23T01:27:57.060Z,21.60
2017-06-23T01:30:23.489Z,21.60
2017-06-23T01:32:49.981Z,21.60
2017-06-23T01:35:16.441Z,21.60
2017-06-23T01:37:42.873Z,21.60
2017-06-23T01:40:09.300Z,21.60
2017-06-23T01:42:35.780Z,21.50
2017-06-23T01:45:02.955Z,21.50
2017-06-23T01:47:29.443Z,21.50
2017-06-23T01:49:55.908Z,21.50
2017-06-23T01:52:22.373Z,21.40
2017-06-23T01:54:48.781Z,21.40
2017-06-23T01:57:15.266Z,21.30
2017-06-23T01:59:41.844Z,21.30
2017-06-23T02:02:08.240Z,21.30
2017-06-23T02:04:34.649Z,21.30
2017-06-23T02:07:01.130Z,21.20
2017-06-23T02:09:28.274Z,21.20
2017-06-23T02:11:55.477Z,21.20
2017-06-23T02:14:21.876Z,21.20
2017-06-23T02:16:48.369Z,21.20
2017-06-23T02:19:14.924Z,21.20
2017-06-23T02:21:41.337Z,21.20
2017-06-23T02:24:07.748Z,21.20
2017-06-23T02:26:34.228Z,21.30
2017-06-23T02:29:01.506Z,21.30
2017-06-23T02:31:27.913Z,21.20
2017-06-23T02:33:55.068Z,21.20
2017-06-23T02:36:22.308Z,21.20
2017-06-23T02:38:48.708Z,21.20
2017-06-23T02:41:15.169Z,21.20
2017-06-23T02:43:41.586Z,21.10
2017-06-23T02:46:08.024Z,21.10
2017-06-23T02:48:34.596Z,21.10
2017-06-23T02:51:01.781Z,21.10
2017-06-23T02:53:28.196Z,21.10
2017-06-23T02:55:54.605Z,21.10
2017-06-23T02:58:21.869Z,21.00
2017-06-23T03:00:48.325Z,21.00
2017-06-23T03:03:14.761Z,21.00
2017-06-23T03:05:41.185Z,21.00
2017-06-23T03:08:07.757Z,21.00
2017-06-23T03:10:34.169Z,21.00
2017-06-23T03:13:00.605Z,21.00
2017-06-23T03:15:27.054Z,21.00
2017-06-23T03:17:53.509Z,21.00
2017-06-23T03:20:19.944Z,21.00
2017-06-23T03:22:46.385Z,21.00
2017-06-23T03:25:13.540Z,21.00
2017-06-23T03:27:40.766Z,21.00
2017-06-23T03:30:07.213Z,21.00
2017-06-23T03:32:33.629Z,21.10
2017-06-23T03:35:00.808Z,21.00
2017-06-23T03:37:28.052Z,21.10
2017-06-23T03:39:55.219Z,21.10
2017-06-23T03:42:21.624Z,21.10
2017-06-23T03:44:48.076Z,21.10
2017-06-23T03:47:15.293Z,21.10
2017-06-23T03:49:41.688Z,21.10
2017-06-23T03:52:08.129Z,21.10
2017-06-23T03:54:34.536Z,21.20
2017-06-23T03:57:01.032Z,21.30
2017-06-23T03:59:27.476Z,21.30
2017-06-23T04:01:53.912Z,21.40
2017-06-23T04:04:20.328Z,21.50
2017-06-23T04:06:46.764Z,21.60
2017-06-23T04:09:13.312Z,21.60
2017-06-23T04:11:39.721Z,21.70
2017-06-23T04:14:06.140Z,21.70
2017-06-23T04:16:32.618Z,21.80
2017-06-23T04:18:59.021Z,21.90
2017-06-23T04:21:25.454Z,21.90
2017-06-23T04:23:51.870Z,22.00
2017-06-23T04:26:18.338Z,22.00
2017-06-23T04:28:44.788Z,22.10
2017-06-23T04:31:11.936Z,22.20
2017-06-23T04:33:39.092Z,22.30
2017-06-23T04:36:06.368Z,22.30
2017-06-23T04:38:32.764Z,22.30
2017-06-23T04:40:59.211Z,22.40
2017-06-23T04:43:25.664Z,22.40
2017-06-23T04:45:52.073Z,22.50
2017-06-23T04:48:18.613Z,22.50
2017-06-23T04:50:45.781Z,22.50
2017-06-23T04:53:12.404Z,22.50
2017-06-23T04:55:38.963Z,22.60
2017-06-23T04:58:05.420Z,22.60
2017-06-23T05:00:31.820Z,22.70
2017-06-23T05:02:58.277Z,22.80
2017-06-23T05:05:24.711Z,22.90
2017-06-23T05:07:51.169Z,23.00
2017-06-23T05:10:17.697Z,23.00
2017-06-23T05:12:44.884Z,23.20
2017-06-23T05:15:12.040Z,23.30
2017-06-23T05:17:39.293Z,23.40
2017-06-23T05:20:06.429Z,23.40
2017-06-23T05:22:33.581Z,23.50
2017-06-23T05:25:00.768Z,23.50
2017-06-23T05:27:27.253Z,23.50
2017-06-23T05:29:53.673Z,23.50
2017-06-23T05:32:20.149Z,23.60
2017-06-23T05:34:46.561Z,23.70
2017-06-23T05:37:13.789Z,23.80
2017-06-23T05:39:40.229Z,23.80
2017-06-23T05:42:06.632Z,23.80
2017-06-23T05:44:33.060Z,23.90
2017-06-23T05:46:59.543Z,24.00
2017-06-23T05:49:25.972Z,24.00
2017-06-23T05:51:52.379Z,24.10
2017-06-23T05:54:18.949Z,24.20
2017-06-23T05:56:46.169Z,24.30
2017-06-23T05:59:12.620Z,24.30
2017-06-23T06:01:39.051Z,24.40
2017-06-23T06:04:05.464Z,24.50
2017-06-23T06:06:32.037Z,24.60
2017-06-23T06:08:59.930Z,24.60
2017-06-23T06:11:26.325Z,24.60
2017-06-23T06:13:52.793Z,24.70
2017-06-23T06:16:19.273Z,24.80
2017-06-23T06:18:45.713Z,24.80
2017-06-23T06:21:12.164Z,24.90
2017-06-23T06:23:38.557Z,25.00
2017-06-23T06:26:04.969Z,25.10
2017-06-23T06:28:31.436Z,25.10
2017-06-23T06:30:57.856Z,25.20
2017-06-23T06:33:24.256Z,25.20
2017-06-23T06:35:50.701Z,25.30
2017-06-23T06:38:17.180Z,25.40
2017-06-23T06:40:43.587Z,25.50
2017-06-23T06:43:10.037Z,25.60
2017-06-23T06:45:36.461Z,25.70
2017-06-23T06:48:02.884Z,25.80
2017-06-23T06:50:29.331Z,25.80
2017-06-23T06:52:55.810Z,25.90
2017-06-23T06:55:22.241Z,25.90
2017-06-23T06:57:48.823Z,25.90
2017-06-23T07:00:15.233Z,26.00
2017-06-23T07:02:41.643Z,26.00
2017-06-23T07:05:08.119Z,26.00
2017-06-23T07:07:34.689Z,26.00
2017-06-23T07:10:01.120Z,26.00
2017-06-23T07:12:27.561Z,26.00
2017-06-23T07:14:53.983Z,25.90
2017-06-23T07:17:20.404Z,25.90
2017-06-23T07:19:46.846Z,25.80
2017-06-23T07:22:13.251Z,25.80
2017-06-23T07:24:39.652Z,25.80
2017-06-23T07:27:06.174Z,25.90
2017-06-23T07:29:33.316Z,26.00
2017-06-23T07:31:59.737Z,26.00
2017-06-23T07:34:26.200Z,26.00
2017-06-23T07:36:52.689Z,26.10
2017-06-23T07:39:19.216Z,26.10
2017-06-23T07:41:45.680Z,26.20
2017-06-23T07:44:12.105Z,26.20
2017-06-23T07:46:38.736Z,26.30
2017-06-23T07:49:05.208Z,26.40
2017-06-23T07:51:31.625Z,26.50
2017-06-23T07:53:58.901Z,26.70
2017-06-23T07:56:25.436Z,26.60
2017-06-23T07:58:51.840Z,26.70
2017-06-23T08:01:18.297Z,26.80
2017-06-23T08:03:44.709Z,26.90
2017-06-23T08:06:11.893Z,27.00
2017-06-23T08:08:38.370Z,27.00
2017-06-23T08:11:04.797Z,27.10
2017-06-23T08:13:31.208Z,27.20
2017-06-23T08:15:57.659Z,27.20
2017-06-23T08:18:24.080Z,27.30
2017-06-23T08:20:50.508Z,27.30
2017-06-23T08:23:16.951Z,27.40
2017-06-23T08:25:43.405Z,27.50
2017-06-23T08:28:09.952Z,27.60
2017-06-23T08:30:36.390Z,27.70
2017-06-23T08:33:03.589Z,27.90
2017-06-23T08:35:29.977Z,27.90
2017-06-23T08:37:56.494Z,28.00
2017-06-23T08:40:22.936Z,28.20
2017-06-23T08:42:49.352Z,28.20
2017-06-23T08:45:15.772Z,28.20
2017-06-23T08:47:42.274Z,28.30
2017-06-23T08:50:08.692Z,28.30
2017-06-23T08:52:35.837Z,28.40
2017-06-23T08:55:02.416Z,28.30
2017-06-23T08:57:28.865Z,28.30
2017-06-23T08:59:55.270Z,28.40
2017-06-23T09:02:21.705Z,28.40
2017-06-23T09:04:48.088Z,28.50
2017-06-23T09:07:14.751Z,28.60
2017-06-23T09:09:41.176Z,28.70
2017-06-23T09:12:08.323Z,28.70
2017-06-23T09:14:35.525Z,28.70
2017-06-23T09:17:01.969Z,28.70
2017-06-23T09:19:28.356Z,28.70
2017-06-23T09:21:54.824Z,28.80
2017-06-23T09:24:21.234Z,28.80
2017-06-23T09:26:47.746Z,28.80
2017-06-23T09:29:14.220Z,28.90
2017-06-23T09:31:40.617Z,29.00
2017-06-23T09:34:07.036Z,29.00
2017-06-23T09:36:34.276Z,29.00
2017-06-23T09:39:00.677Z,29.00
2017-06-23T09:41:27.088Z,29.00
2017-06-23T09:43:53.553Z,29.00
2017-06-23T09:46:19.973Z,29.00
2017-06-23T09:48:46.381Z,29.00
2017-06-23T09:51:12.833Z,29.10
2017-06-23T09:53:39.252Z,29.10
2017-06-23T09:56:05.668Z,29.20
2017-06-23T09:58:32.108Z,29.30
2017-06-23T10:00:58.524Z,29.40
2017-06-23T10:03:25.665Z,29.50
2017-06-23T10:05:52.861Z,29.50
2017-06-23T10:08:19.328Z,29.40
2017-06-23T10:10:45.749Z,29.50
2017-06-23T10:13:12.205Z,29.70
2017-06-23T10:15:38.648Z,29.70
2017-06-23T10:18:05.880Z,29.80
2017-06-23T10:20:32.327Z,29.80
2017-06-23T10:22:58.741Z,30.00
2017-06-23T10:25:25.149Z,30.10
2017-06-23T10:27:51.625Z,30.20
2017-06-23T10:30:18.033Z,30.50
2017-06-23T10:32:44.491Z,30.50
2017-06-23T10:35:11.649Z,30.90
2017-06-23T10:37:39.009Z,31.00
2017-06-23T10:40:06.192Z,31.20
2017-06-23T10:42:32.595Z,31.20
2017-06-23T10:44:59.741Z,31.80
2017-06-23T10:47:26.980Z,31.90
2017-06-23T10:49:53.401Z,31.90
2017-06-23T10:52:19.826Z,32.10
2017-06-23T10:54:46.280Z,32.20
2017-06-23T10:57:13.496Z,32.40
2017-06-23T10:59:39.936Z,32.40
2017-06-23T11:02:06.381Z,32.30
2017-06-23T11:04:32.796Z,32.20
2017-06-23T11:06:59.248Z,32.20
2017-06-23T11:09:25.717Z,32.20
2017-06-23T11:11:52.870Z,31.90
2017-06-23T11:14:19.388Z,31.90
2017-06-23T11:16:46.618Z,31.70
2017-06-23T11:19:13.072Z,31.70
2017-06-23T11:21:40.264Z,31.40
2017-06-23T11:24:06.673Z,31.40
2017-06-23T11:26:33.137Z,31.30
2017-06-23T11:28:59.668Z,31.00
2017-06-23T11:31:26.122Z,30.60
2017-06-23T11:33:52.525Z,29.50
2017-06-23T11:36:19.109Z,28.70
2017-06-23T11:38:45.526Z,28.10
2017-06-23T11:41:12.772Z,27.70
2017-06-23T11:43:39.222Z,27.30
2017-06-23T11:46:05.710Z,26.90
2017-06-23T11:48:32.236Z,26.60
2017-06-23T11:50:58.693Z,26.60
2017-06-23T11:53:25.297Z,26.60
2017-06-23T11:55:51.765Z,26.50
2017-06-23T11:58:18.244Z,26.30
2017-06-23T12:00:45.412Z,25.90
2017-06-23T12:03:12.024Z,25.90
2017-06-23T12:05:38.478Z,25.80
2017-06-23T12:08:06.023Z,25.60
2017-06-23T12:10:32.729Z,25.60
2017-06-23T12:12:59.185Z,25.60
2017-06-23T12:15:25.588Z,25.50
2017-06-23T12:17:52.204Z,25.20
2017-06-23T12:20:18.600Z,24.90
2017-06-23T12:22:45.741Z,24.80
2017-06-23T12:25:12.201Z,24.70
2017-06-23T12:27:38.691Z,24.30
2017-06-23T12:30:05.113Z,24.00
2017-06-23T12:32:31.931Z,24.00
2017-06-23T12:34:58.340Z,24.00
2017-06-23T12:37:25.559Z,23.70
2017-06-23T12:39:52.089Z,23.70
2017-06-23T12:42:18.505Z,23.90
2017-06-23T12:44:44.900Z,23.90
2017-06-23T12:47:11.433Z,23.80
2017-06-23T12:49:37.838Z,23.80
2017-06-23T12:52:04.258Z,23.80
2017-06-23T12:54:30.701Z,23.90
2017-06-23T12:56:57.232Z,23.70
2017-06-23T12:59:23.628Z,23.70
2017-06-23T13:01:50.172Z,23.80
2017-06-23T13:04:16.569Z,24.00
2017-06-23T13:06:58.001Z,24.20
2017-06-23T13:09:24.412Z,24.30
2017-06-23T13:11:50.848Z,24.30
2017-06-23T13:14:17.317Z,24.10
2017-06-23T13:16:43.740Z,24.20
2017-06-23T13:19:10.216Z,24.20
2017-06-23T13:21:36.829Z,24.10
2017-06-23T13:24:03.248Z,24.10
2017-06-23T13:26:30.166Z,24.40
2017-06-23T13:28:56.886Z,24.80
2017-06-23T13:31:23.344Z,25.20
2017-06-23T13:33:50.351Z,25.50
2017-06-23T13:36:16.932Z,26.00
2017-06-23T13:38:43.355Z,26.60
2017-06-23T13:41:09.822Z,27.00
2017-06-23T13:43:36.273Z,27.30
2017-06-23T13:46:02.713Z,27.20
2017-06-23T13:48:29.232Z,27.30
2017-06-23T13:50:55.637Z,27.20
2017-06-23T13:53:22.029Z,27.20
2017-06-23T13:55:48.619Z,27.10
2017-06-23T13:58:15.033Z,27.10
2017-06-23T14:00:41.432Z,27.00
2017-06-23T14:03:07.897Z,26.80
2017-06-23T14:05:34.345Z,27.00
2017-06-23T14:08:00.795Z,27.10
2017-06-23T14:10:28.003Z,27.00
2017-06-23T14:12:54.438Z,27.00
2017-06-23T14:15:20.853Z,26.70
2017-06-23T14:17:47.356Z,26.70
2017-06-23T14:20:14.497Z,26.60
2017-06-23T14:22:40.944Z,26.50
2017-06-23T14:25:07.351Z,26.40
2017-06-23T14:27:33.883Z,26.30
2017-06-23T14:30:00.324Z,26.30
2017-06-23T14:32:26.737Z,26.30
2017-06-23T14:34:53.204Z,26.40
2017-06-23T14:37:20.476Z,26.40
2017-06-23T14:39:47.605Z,26.30
2017-06-23T14:42:14.019Z,26.20
2017-06-23T14:44:40.521Z,26.20
2017-06-23T14:47:06.981Z,26.20
2017-06-23T14:49:33.388Z,26.30
2017-06-23T14:52:00.681Z,26.50
2017-06-23T14:54:27.121Z,26.50
2017-06-23T14:56:54.341Z,26.60
2017-06-23T14:59:21.180Z,26.50
2017-06-23T15:01:47.757Z,26.50
2017-06-23T15:04:14.917Z,26.50
2017-06-23T15:06:48.528Z,26.50
2017-06-23T15:09:14.984Z,26.70
2017-06-23T15:11:41.655Z,26.70
2017-06-23T15:14:08.305Z,26.70
2017-06-23T15:16:34.813Z,26.90
2017-06-23T15:19:01.545Z,27.10
2017-06-23T15:21:28.151Z,27.30
2017-06-23T15:23:54.572Z,27.20
2017-06-23T15:26:21.797Z,26.70
2017-06-23T15:28:48.373Z,26.70
2017-06-23T15:31:14.825Z,26.70
2017-06-23T15:33:41.228Z,26.60
2017-06-23T15:36:07.989Z,26.30
2017-06-23T15:38:34.460Z,26.10
2017-06-23T15:41:01.125Z,26.10
2017-06-23T15:43:27.621Z,26.30
2017-06-23T15:45:54.053Z,26.60
2017-06-23T15:48:20.523Z,26.80
2017-06-23T15:50:46.924Z,27.20
2017-06-23T15:53:13.394Z,27.30
2017-06-23T15:55:39.792Z,27.00
2017-06-23T15:58:07.311Z,26.80
2017-06-23T16:00:33.860Z,26.90
2017-06-23T16:03:00.338Z,27.00
2017-06-23T16:05:26.777Z,27.00
2017-06-23T16:07:54.193Z,27.10
2017-06-23T16:10:20.660Z,27.00
2017-06-23T16:12:47.440Z,27.00
2017-06-23T16:15:14.725Z,26.80
2017-06-23T16:17:41.220Z,26.80
2017-06-23T16:20:07.634Z,26.70
2017-06-23T16:22:34.085Z,26.60
2017-06-23T16:25:00.521Z,26.50
2017-06-23T16:27:27.065Z,26.50
2017-06-23T16:29:54.566Z,26.40
2017-06-23T16:32:21.857Z,26.40
2017-06-23T16:34:48.308Z,26.40
2017-06-23T16:37:14.812Z,26.40
2017-06-23T16:39:41.274Z,26.40
2017-06-23T16:42:07.942Z,26.30
2017-06-23T16:44:34.484Z,26.10
2017-06-23T16:47:01.064Z,25.80
2017-06-23T16:49:27.498Z,25.50
2017-06-23T16:51:54.701Z,25.00
2017-06-23T16:54:21.200Z,25.00
2017-06-23T16:56:47.706Z,24.70
2017-06-23T16:59:14.423Z,24.40
2017-06-23T17:01:41.230Z,24.10
2017-06-23T17:04:07.724Z,23.90
2017-06-23T17:06:34.309Z,23.80
2017-06-23T17:09:00.729Z,23.70
2017-06-23T17:11:27.158Z,23.50
2017-06-23T17:13:53.700Z,23.30
2017-06-23T17:16:20.186Z,23.20
2017-06-23T17:18:46.987Z,23.10
2017-06-23T17:21:13.745Z,23.00
2017-06-23T17:23:40.192Z,22.90
2017-06-23T17:26:06.596Z,22.80
2017-06-23T17:28:33.096Z,22.70
2017-06-23T17:31:00.239Z,22.60
2017-06-23T17:33:27.929Z,22.60
2017-06-23T17:35:55.653Z,22.50
2017-06-23T17:38:22.371Z,22.50
2017-06-23T17:40:48.933Z,22.50
2017-06-23T17:43:15.376Z,22.50
2017-06-23T17:45:41.796Z,22.40
2017-06-23T17:48:08.364Z,22.40
2017-06-23T17:50:35.078Z,22.40
2017-06-23T17:53:02.695Z,22.00
2017-06-23T17:55:29.916Z,21.90
2017-06-23T17:57:56.413Z,21.80
2017-06-23T18:00:22.881Z,21.70
2017-06-23T18:02:49.320Z,21.80
2017-06-23T18:05:15.765Z,21.90
2017-06-23T18:07:42.856Z,21.80
2017-06-23T18:10:10.040Z,21.90
2017-06-23T18:12:37.184Z,21.90
2017-06-23T18:15:04.372Z,21.90
2017-06-23T18:17:31.323Z,21.90
2017-06-23T18:19:58.848Z,21.90
2017-06-23T18:22:25.564Z,21.90
2017-06-23T18:24:51.983Z,21.90
2017-06-23T18:27:18.829Z,21.90
2017-06-23T18:29:45.675Z,21.80
2017-06-23T18:32:12.845Z,21.70
2017-06-23T18:34:39.984Z,21.70
2017-06-23T18:37:06.985Z,21.70
2017-06-23T18:39:33.404Z,21.70
2017-06-23T18:41:59.848Z,21.70
2017-06-23T18:44:26.632Z,21.70
2017-06-23T18:46:54.259Z,21.70
2017-06-23T18:49:20.936Z,21.70
2017-06-23T18:51:47.385Z,21.70
2017-06-23T18:54:14.817Z,21.60
2017-06-23T18:56:42.342Z,21.50
2017-06-23T18:59:08.882Z,21.50
2017-06-23T19:01:35.356Z,21.40
2017-06-23T19:04:02.557Z,21.40
2017-06-23T19:06:29.025Z,21.40
2017-06-23T19:08:55.440Z,21.40
2017-06-23T19:11:22.349Z,21.40
2017-06-23T19:13:49.846Z,21.30
2017-06-23T19:16:16.436Z,21.40
2017-06-23T19:18:58.257Z,21.30
2017-06-23T19:21:24.705Z,21.20
2017-06-23T19:23:51.109Z,21.20
2017-06-23T19:26:17.554Z,21.20
2017-06-23T19:28:44.256Z,21.20
2017-06-23T19:31:10.713Z,21.10
2017-06-23T19:33:37.162Z,21.10
2017-06-23T19:36:03.889Z,21.20
2017-06-23T19:38:30.366Z,21.20
2017-06-23T19:40:56.968Z,21.10
2017-06-23T19:43:23.416Z,21.10
2017-06-23T19:45:49.838Z,21.00
2017-06-23T19:48:16.344Z,20.90
2017-06-23T19:50:42.755Z,20.90
2017-06-23T19:53:09.152Z,20.90
2017-06-23T19:55:35.614Z,21.00
2017-06-23T19:58:02.120Z,20.90
2017-06-23T20:00:28.537Z,20.90
2017-06-23T20:02:54.998Z,20.90
2017-06-23T20:05:21.936Z,20.90
2017-06-23T20:07:49.201Z,21.00
2017-06-23T20:10:15.629Z,21.00
2017-06-23T20:12:42.049Z,21.00
2017-06-23T20:15:08.639Z,21.00
2017-06-23T20:17:35.856Z,21.00
2017-06-23T20:20:02.284Z,21.00
2017-06-23T20:22:28.744Z,21.00
2017-06-23T20:24:56.009Z,21.00
2017-06-23T20:27:22.497Z,20.90
2017-06-23T20:29:49.074Z,20.90
2017-06-23T20:32:15.502Z,20.90
2017-06-23T20:34:42.665Z,20.90
2017-06-23T20:37:09.917Z,20.90
2017-06-23T20:39:36.323Z,20.80
2017-06-23T20:42:02.794Z,20.90
2017-06-23T20:44:29.210Z,20.80
2017-06-23T20:46:56.424Z,20.90
2017-06-23T20:49:22.845Z,20.80
2017-06-23T20:51:49.256Z,20.80
2017-06-23T20:54:15.712Z,20.80
2017-06-23T20:56:42.133Z,20.70
2017-06-23T20:59:08.577Z,20.70
2017-06-23T21:01:35.126Z,20.70
2017-06-23T21:04:01.552Z,20.70
2017-06-23T21:06:28.089Z,20.70
2017-06-23T21:08:54.554Z,20.60
2017-06-23T21:11:21.800Z,20.50
2017-06-23T21:13:48.294Z,20.50
2017-06-23T21:16:14.700Z,20.50
2017-06-23T21:18:41.109Z,20.50
2017-06-23T21:21:08.390Z,20.40
2017-06-23T21:23:34.788Z,20.40
2017-06-23T21:26:01.236Z,20.40
2017-06-23T21:28:27.769Z,20.40
2017-06-23T21:30:54.949Z,20.40
2017-06-23T21:33:21.356Z,20.30
2017-06-23T21:35:48.659Z,20.20
2017-06-23T21:38:15.107Z,20.20
2017-06-23T21:41:04.255Z,20.20
2017-06-23T21:43:30.660Z,20.30
2017-06-23T21:45:57.065Z,20.20
2017-06-23T21:48:24.261Z,20.20
2017-06-23T21:50:50.675Z,20.20
2017-06-23T21:53:17.328Z,20.10
2017-06-23T21:55:43.828Z,20.10
2017-06-23T21:58:11.049Z,20.10
2017-06-23T22:00:37.457Z,20.10
2017-06-23T22:03:04.022Z,20.10
2017-06-23T22:05:30.436Z,20.00
2017-06-23T22:07:56.878Z,20.00
2017-06-23T22:10:23.336Z,20.00
2017-06-23T22:12:49.768Z,20.00
2017-06-23T22:15:16.925Z,19.90
2017-06-23T22:17:44.257Z,19.90
2017-06-23T22:20:10.661Z,19.90
2017-06-23T22:22:37.073Z,19.90
2017-06-23T22:25:03.524Z,19.90
2017-06-23T22:27:29.971Z,19.90
2017-06-23T22:29:56.384Z,19.90
2017-06-23T22:32:22.813Z,19.90
2017-06-23T22:34:49.240Z,19.90
2017-06-23T22:37:15.704Z,19.80
2017-06-23T22:39:42.164Z,19.80
2017-06-23T22:42:08.562Z,19.80
2017-06-23T22:44:34.960Z,19.80
2017-06-23T22:47:01.465Z,19.80
2017-06-23T22:49:27.849Z,19.70
2017-06-23T22:51:54.265Z,19.70
2017-06-23T22:54:20.715Z,19.60
2017-06-23T22:56:47.176Z,19.60
2017-06-23T22:59:13.591Z,19.60
2017-06-23T23:01:40.030Z,19.60
2017-06-23T23:04:06.452Z,19.60
2017-06-23T23:06:33.809Z,19.60
2017-06-23T23:09:00.246Z,19.60
2017-06-23T23:11:26.698Z,19.60
2017-06-23T23:13:53.137Z,19.60
2017-06-23T23:16:19.545Z,19.50
2017-06-23T23:18:46.000Z,19.50
2017-06-23T23:21:13.169Z,19.50
2017-06-23T23:23:40.309Z,19.50
2017-06-23T23:26:06.749Z,19.50
2017-06-23T23:28:33.979Z,19.60
2017-06-23T23:31:00.501Z,19.50
2017-06-23T23:33:26.908Z,19.50
2017-06-23T23:35:53.321Z,19.50
2017-06-23T23:38:19.850Z,19.50
2017-06-23T23:40:47.002Z,19.50
2017-06-23T23:43:13.409Z,19.50
2017-06-23T23:45:39.849Z,19.50
2017-06-23T23:48:07.073Z,19.50
2017-06-23T23:50:33.476Z,19.50
2017-06-23T23:52:59.916Z,19.50
2017-06-23T23:55:26.316Z,19.60
2017-06-23T23:57:53.523Z,19.50
